createdAt,value
2022-11-13T00:01:28.643Z,9.82
2022-11-13T00:04:00.518Z,9.65
2022-11-13T00:06:30.799Z,9.49
2022-11-13T00:09:00.987Z,9.89
2022-11-13T00:11:30.477Z,10.04
2022-11-13T00:14:00.379Z,9.90
2022-11-13T00:16:29.642Z,9.49
2022-11-13T00:19:00.453Z,9.96
2022-11-13T00:21:29.945Z,9.97
2022-11-13T00:24:00.172Z,9.90
2022-11-13T00:26:31.137Z,9.94
2022-11-13T00:29:04.281Z,9.67
2022-11-13T00:31:33.689Z,9.58
2022-11-13T00:34:25.953Z,9.97
2022-11-13T00:36:55.828Z,9.81
2022-11-13T00:39:25.494Z,9.50
2022-11-13T00:41:55.000Z,9.55
2022-11-13T00:44:24.792Z,9.89
2022-11-13T00:46:54.478Z,9.82
2022-11-13T00:49:25.365Z,9.89
2022-11-13T00:51:57.075Z,9.90
2022-11-13T00:54:26.719Z,10.03
2022-11-13T00:56:56.545Z,9.83
2022-11-13T00:59:26.144Z,9.82
2022-11-13T01:01:56.224Z,9.30
2022-11-13T01:04:27.120Z,9.42
2022-11-13T01:06:56.588Z,9.60
2022-11-13T01:09:25.975Z,9.63
2022-11-13T01:11:56.320Z,9.36
2022-11-13T01:14:26.416Z,9.22
2022-11-13T01:16:56.160Z,9.51
2022-11-13T01:19:27.115Z,9.03
2022-11-13T01:21:56.999Z,8.91
2022-11-13T01:24:26.906Z,8.67
2022-11-13T01:26:57.041Z,9.14
2022-11-13T01:29:26.645Z,8.96
2022-11-13T01:31:56.216Z,8.80
2022-11-13T01:34:27.435Z,8.71
2022-11-13T01:36:56.921Z,8.95
2022-11-13T01:39:26.377Z,8.97
2022-11-13T01:41:56.432Z,9.02
2022-11-13T01:44:26.755Z,8.65
2022-11-13T01:46:57.143Z,8.50
2022-11-13T01:49:31.590Z,8.34
2022-11-13T01:52:02.822Z,8.52
2022-11-13T01:54:34.731Z,8.32
2022-11-13T01:57:05.242Z,8.20
2022-11-13T01:59:37.347Z,8.72
2022-11-13T02:02:06.833Z,8.37
2022-11-13T02:04:38.419Z,8.58
2022-11-13T02:07:09.630Z,8.34
2022-11-13T02:09:41.456Z,8.36
2022-11-13T02:12:13.316Z,8.35
2022-11-13T02:14:43.769Z,8.53
2022-11-13T02:17:16.299Z,8.49
2022-11-13T02:19:50.926Z,8.36
2022-11-13T02:22:24.260Z,8.27
2022-11-13T02:24:55.470Z,8.14
2022-11-13T02:27:29.744Z,8.02
2022-11-13T02:29:59.497Z,7.85
2022-11-13T02:32:31.177Z,8.19
2022-11-13T02:35:00.679Z,8.13
2022-11-13T02:37:30.455Z,8.22
2022-11-13T02:40:01.746Z,7.89
2022-11-13T02:42:31.234Z,7.56
2022-11-13T02:45:01.499Z,7.79
2022-11-13T02:47:30.918Z,7.85
2022-11-13T02:50:00.816Z,7.69
2022-11-13T02:52:31.273Z,7.77
2022-11-13T02:55:02.245Z,7.66
2022-11-13T02:57:31.618Z,7.87
2022-11-13T03:00:01.330Z,7.56
2022-11-13T03:02:30.739Z,7.51
2022-11-13T03:05:15.543Z,7.94
2022-11-13T03:07:45.215Z,7.97
2022-11-13T03:10:16.403Z,7.68
2022-11-13T03:12:46.305Z,7.66
2022-11-13T03:15:15.893Z,7.66
2022-11-13T03:17:45.384Z,7.26
2022-11-13T03:20:15.141Z,7.78
2022-11-13T03:22:44.746Z,7.53
2022-11-13T03:25:15.670Z,7.53
2022-11-13T03:27:45.174Z,7.28
2022-11-13T03:30:15.255Z,7.75
2022-11-13T03:32:44.636Z,7.31
2022-11-13T03:35:14.058Z,7.65
2022-11-13T03:37:43.664Z,7.74
2022-11-13T03:40:15.492Z,6.88
2022-11-13T03:42:46.523Z,7.03
2022-11-13T03:45:16.080Z,7.46
2022-11-13T03:47:45.565Z,7.68
2022-11-13T03:50:14.842Z,7.98
2022-11-13T03:52:44.039Z,7.92
2022-11-13T03:55:13.759Z,7.16
2022-11-13T03:57:44.907Z,7.62
2022-11-13T04:00:15.829Z,7.58
2022-11-13T04:02:45.315Z,7.20
2022-11-13T04:05:18.650Z,6.86
2022-11-13T04:07:51.376Z,7.05
2022-11-13T04:10:21.301Z,7.47
2022-11-13T04:12:52.496Z,7.41
2022-11-13T04:15:22.167Z,7.39
2022-11-13T04:17:51.987Z,7.28
2022-11-13T04:20:21.595Z,7.21
2022-11-13T04:22:51.056Z,7.16
2022-11-13T04:25:20.541Z,7.18
2022-11-13T04:27:53.211Z,7.32
2022-11-13T04:30:22.631Z,7.27
2022-11-13T04:32:52.224Z,7.17
2022-11-13T04:35:22.002Z,6.81
2022-11-13T04:37:51.593Z,6.84
2022-11-13T04:40:20.969Z,7.22
2022-11-13T04:42:50.978Z,6.72
2022-11-13T04:45:21.875Z,7.05
2022-11-13T04:47:52.388Z,7.08
2022-11-13T04:50:21.732Z,6.72
2022-11-13T04:52:51.100Z,6.46
2022-11-13T04:55:20.498Z,6.66
2022-11-13T04:57:51.955Z,7.09
2022-11-13T05:00:22.342Z,6.97
2022-11-13T05:02:51.721Z,6.82
2022-11-13T05:05:21.091Z,6.90
2022-11-13T05:07:50.556Z,7.33
2022-11-13T05:10:20.165Z,6.94
2022-11-13T05:12:51.897Z,7.21
2022-11-13T05:15:21.439Z,7.45
2022-11-13T05:17:50.899Z,7.25
2022-11-13T05:20:20.320Z,7.56
2022-11-13T05:22:49.850Z,7.59
2022-11-13T05:25:19.332Z,7.76
2022-11-13T05:27:48.735Z,7.73
2022-11-13T05:30:22.515Z,7.38
2022-11-13T05:32:52.723Z,7.41
2022-11-13T05:35:21.868Z,7.42
2022-11-13T05:37:53.626Z,6.99
2022-11-13T05:40:23.112Z,7.55
2022-11-13T05:42:54.181Z,7.69
2022-11-13T05:45:25.547Z,7.71
2022-11-13T05:47:54.898Z,7.16
2022-11-13T05:50:24.250Z,7.72
2022-11-13T05:52:53.650Z,7.11
2022-11-13T05:55:23.670Z,7.21
2022-11-13T05:57:53.090Z,7.26
2022-11-13T06:00:24.301Z,7.39
2022-11-13T06:02:54.097Z,7.26
2022-11-13T06:05:23.342Z,7.09
2022-11-13T06:07:52.855Z,7.42
2022-11-13T06:10:22.270Z,7.42
2022-11-13T06:12:51.615Z,7.71
2022-11-13T06:15:21.380Z,7.43
2022-11-13T06:17:52.385Z,7.44
2022-11-13T06:20:21.748Z,7.92
2022-11-13T06:22:51.082Z,7.60
2022-11-13T06:25:20.625Z,7.68
2022-11-13T06:27:50.106Z,7.99
2022-11-13T06:30:20.096Z,7.82
2022-11-13T06:32:55.658Z,7.73
2022-11-13T06:35:25.246Z,8.17
2022-11-13T06:37:56.686Z,8.46
2022-11-13T06:40:26.203Z,8.51
2022-11-13T06:42:55.807Z,8.23
2022-11-13T06:45:25.182Z,8.34
2022-11-13T06:47:57.386Z,8.18
2022-11-13T06:50:26.767Z,8.02
2022-11-13T06:52:56.752Z,8.06
2022-11-13T06:55:29.387Z,8.06
2022-11-13T06:57:58.756Z,8.04
2022-11-13T07:00:36.378Z,8.21
2022-11-13T07:03:17.641Z,8.44
2022-11-13T07:05:47.448Z,8.59
2022-11-13T07:08:17.509Z,8.31
2022-11-13T07:10:55.671Z,8.16
2022-11-13T07:13:25.515Z,8.48
2022-11-13T07:15:55.154Z,8.70
2022-11-13T07:18:26.773Z,8.83
2022-11-13T07:20:56.164Z,8.32
2022-11-13T07:23:25.751Z,8.58
2022-11-13T07:25:57.468Z,8.78
2022-11-13T07:28:27.156Z,8.51
2022-11-13T07:30:59.276Z,8.63
2022-11-13T07:33:30.228Z,8.92
2022-11-13T07:36:01.162Z,8.84
2022-11-13T07:38:31.035Z,8.84
2022-11-13T07:41:01.306Z,8.68
2022-11-13T07:43:31.368Z,9.01
2022-11-13T07:46:01.770Z,9.04
2022-11-13T07:48:32.688Z,9.38
2022-11-13T07:51:03.458Z,9.00
2022-11-13T07:53:35.840Z,8.82
2022-11-13T07:56:06.083Z,9.14
2022-11-13T07:58:35.753Z,8.87
2022-11-13T08:01:06.231Z,8.84
2022-11-13T08:03:37.323Z,8.83
2022-11-13T08:06:08.731Z,8.86
2022-11-13T08:08:38.500Z,9.04
2022-11-13T08:11:08.946Z,8.76
2022-11-13T08:13:39.199Z,8.90
2022-11-13T08:16:09.204Z,8.66
2022-11-13T08:18:40.437Z,8.83
2022-11-13T08:21:14.718Z,8.85
2022-11-13T08:23:44.946Z,8.86
2022-11-13T08:26:15.270Z,9.13
2022-11-13T08:28:45.134Z,9.09
2022-11-13T08:31:16.759Z,8.99
2022-11-13T08:33:47.689Z,9.12
2022-11-13T08:36:17.324Z,9.42
2022-11-13T08:38:51.470Z,9.20
2022-11-13T08:41:20.908Z,9.46
2022-11-13T08:43:50.599Z,9.63
2022-11-13T08:46:45.569Z,9.47
2022-11-13T08:49:22.862Z,9.73
2022-11-13T08:51:52.311Z,9.67
2022-11-13T08:54:22.086Z,9.54
2022-11-13T08:57:06.144Z,9.53
2022-11-13T08:59:46.902Z,9.62
2022-11-13T09:02:24.210Z,9.51
2022-11-13T09:05:05.780Z,9.53
2022-11-13T09:07:35.804Z,9.66
2022-11-13T09:10:06.112Z,9.83
2022-11-13T09:13:44.033Z,9.93
2022-11-13T09:16:57.454Z,10.11
2022-11-13T09:19:50.220Z,10.19
2022-11-13T09:22:25.790Z,10.13
2022-11-13T09:25:09.104Z,10.31
2022-11-13T09:36:18.285Z,10.40
2022-11-13T09:38:55.154Z,10.58
2022-11-13T09:41:29.666Z,10.80
2022-11-13T09:44:01.910Z,10.86
2022-11-13T09:46:39.640Z,10.84
2022-11-13T09:49:18.638Z,11.09
2022-11-13T09:51:55.058Z,10.93
2022-11-13T09:54:26.005Z,11.00
2022-11-13T09:57:00.150Z,11.06
2022-11-13T09:59:33.668Z,11.31
2022-11-13T10:02:19.203Z,11.38
2022-11-13T10:04:56.672Z,11.50
2022-11-13T10:07:34.382Z,11.32
2022-11-13T10:10:29.614Z,11.42
2022-11-13T10:13:00.560Z,11.45
2022-11-13T10:15:31.452Z,11.41
2022-11-13T10:18:04.169Z,11.63
2022-11-13T10:20:37.841Z,11.86
2022-11-13T10:23:12.431Z,11.83
2022-11-13T10:25:43.948Z,12.33
2022-11-13T10:28:48.260Z,12.37
2022-11-13T10:31:05.592Z,12.11
2022-11-13T10:33:35.344Z,12.13
2022-11-13T10:36:08.656Z,12.37
2022-11-13T10:38:43.475Z,12.31
2022-11-13T10:41:19.106Z,12.72
2022-11-13T10:43:57.821Z,12.50
2022-11-13T10:46:30.063Z,12.55
2022-11-13T10:49:00.175Z,13.02
2022-11-13T10:51:31.077Z,12.81
2022-11-13T10:54:01.539Z,12.85
2022-11-13T10:56:34.112Z,13.25
2022-11-13T10:59:05.617Z,13.44
2022-11-13T11:01:35.268Z,13.66
2022-11-13T11:04:06.477Z,14.19
2022-11-13T11:07:12.761Z,13.51
2022-11-13T11:09:29.867Z,13.44
2022-11-13T11:12:19.627Z,14.03
2022-11-13T11:15:08.223Z,13.53
2022-11-13T11:17:43.299Z,14.57
2022-11-13T11:20:22.411Z,14.41
2022-11-13T11:22:54.468Z,14.14
2022-11-13T11:25:31.429Z,13.91
2022-11-13T11:28:06.469Z,13.87
2022-11-13T11:30:41.757Z,14.15
2022-11-13T11:33:24.607Z,13.66
2022-11-13T11:35:58.448Z,13.66
2022-11-13T11:38:31.319Z,13.57
2022-11-13T11:41:13.352Z,13.84
2022-11-13T11:43:49.528Z,13.89
2022-11-13T11:46:25.869Z,14.69
2022-11-13T11:49:02.583Z,13.87
2022-11-13T11:51:33.680Z,14.12
2022-11-13T11:54:16.489Z,13.75
2022-11-13T11:56:48.344Z,13.81
2022-11-13T11:59:33.195Z,13.66
2022-11-13T12:02:30.604Z,14.06
2022-11-13T12:05:15.575Z,13.82
2022-11-13T12:07:59.323Z,13.64
2022-11-13T12:10:35.916Z,13.61
2022-11-13T12:13:15.664Z,13.94
2022-11-13T12:15:50.627Z,13.94
2022-11-13T12:18:27.663Z,13.59
2022-11-13T12:21:04.866Z,13.60
2022-11-13T12:23:43.080Z,13.83
2022-11-13T12:26:21.200Z,13.49
2022-11-13T12:28:55.460Z,13.63
2022-11-13T12:31:41.760Z,13.41
2022-11-13T12:34:17.444Z,13.66
2022-11-13T12:36:47.144Z,13.62
2022-11-13T12:39:30.738Z,13.57
2022-11-13T12:42:04.455Z,13.34
2022-11-13T12:44:41.700Z,13.56
2022-11-13T12:47:12.649Z,13.28
2022-11-13T12:49:42.095Z,13.49
2022-11-13T12:52:20.951Z,13.17
2022-11-13T12:54:50.503Z,13.18
2022-11-13T12:57:30.144Z,13.50
2022-11-13T13:00:12.267Z,13.43
2022-11-13T13:02:56.793Z,13.42
2022-11-13T13:05:31.355Z,13.57
2022-11-13T13:08:32.535Z,13.40
2022-11-13T13:11:13.750Z,13.39
2022-11-13T13:13:48.685Z,13.42
2022-11-13T13:16:25.259Z,13.53
2022-11-13T13:19:07.896Z,13.54
2022-11-13T13:21:45.396Z,13.16
2022-11-13T13:24:30.668Z,13.19
2022-11-13T13:27:00.210Z,13.25
2022-11-13T13:29:30.887Z,13.51
2022-11-13T13:32:12.167Z,13.30
2022-11-13T13:34:53.336Z,13.28
2022-11-13T13:37:31.236Z,13.30
2022-11-13T13:40:10.545Z,13.37
2022-11-13T13:42:54.973Z,13.01
2022-11-13T13:45:32.782Z,12.87
2022-11-13T14:01:22.301Z,12.77
2022-11-13T14:04:06.023Z,12.90
2022-11-13T14:06:35.410Z,12.57
2022-11-13T14:09:11.790Z,12.37
2022-11-13T14:11:43.828Z,12.18
2022-11-13T14:14:47.450Z,12.53
2022-11-13T14:17:47.980Z,12.38
2022-11-13T14:20:19.102Z,12.44
2022-11-13T14:22:55.039Z,12.33
2022-11-13T14:25:28.012Z,12.35
2022-11-13T14:27:57.527Z,12.23
2022-11-13T14:30:28.760Z,12.27
2022-11-13T14:32:58.488Z,12.25
2022-11-13T14:35:29.479Z,12.15
2022-11-13T14:37:58.859Z,12.24
2022-11-13T14:40:33.955Z,12.10
2022-11-13T14:43:07.833Z,12.12
2022-11-13T14:45:37.231Z,11.99
2022-11-13T14:48:20.337Z,12.19
2022-11-13T14:50:55.815Z,12.22
2022-11-13T14:53:36.358Z,12.22
2022-11-13T14:56:09.216Z,11.97
2022-11-13T14:58:54.841Z,11.90
2022-11-13T15:01:25.996Z,11.98
2022-11-13T15:03:55.217Z,11.77
2022-11-13T15:06:27.443Z,11.72
2022-11-13T15:08:58.195Z,11.58
2022-11-13T15:11:28.824Z,11.48
2022-11-13T15:14:04.401Z,11.43
2022-11-13T15:16:35.894Z,11.30
2022-11-13T15:19:07.083Z,11.53
2022-11-13T15:21:37.989Z,11.60
2022-11-13T15:24:07.942Z,11.33
2022-11-13T15:26:37.567Z,11.18
2022-11-13T15:29:07.186Z,11.27
2022-11-13T15:31:38.143Z,11.12
2022-11-13T15:34:10.630Z,10.77
2022-11-13T15:36:42.050Z,10.50
2022-11-13T15:39:21.146Z,10.51
2022-11-13T15:41:54.802Z,10.39
2022-11-13T15:44:24.939Z,10.35
2022-11-13T15:46:54.809Z,10.09
2022-11-13T15:49:24.843Z,10.04
2022-11-13T15:51:56.309Z,10.20
2022-11-13T15:54:28.375Z,10.09
2022-11-13T15:56:57.961Z,9.94
2022-11-13T15:59:28.555Z,9.82
2022-11-13T16:01:58.744Z,10.18
2022-11-13T16:04:50.809Z,9.95
2022-11-13T16:07:31.358Z,9.81
2022-11-13T16:10:01.571Z,9.77
2022-11-13T16:12:31.719Z,9.82
2022-11-13T16:15:03.706Z,9.95
2022-11-13T16:17:41.809Z,9.58
2022-11-13T16:20:15.606Z,9.51
2022-11-13T16:22:48.497Z,9.58
2022-11-13T16:25:20.512Z,9.71
2022-11-13T16:27:52.504Z,9.44
2022-11-13T16:30:24.972Z,9.30
2022-11-13T16:32:56.177Z,9.47
2022-11-13T16:35:25.915Z,9.62
2022-11-13T16:37:57.748Z,9.44
2022-11-13T16:40:28.058Z,9.27
2022-11-13T16:42:58.436Z,9.49
2022-11-13T16:45:28.910Z,9.66
2022-11-13T16:47:58.957Z,9.56
2022-11-13T16:50:32.308Z,9.33
2022-11-13T16:53:05.020Z,9.59
2022-11-13T16:55:36.840Z,9.47
2022-11-13T16:58:07.902Z,9.09
2022-11-13T17:00:39.600Z,9.24
2022-11-13T17:03:16.260Z,9.18
2022-11-13T17:05:46.784Z,9.13
2022-11-13T17:08:20.897Z,9.02
2022-11-13T17:10:59.721Z,8.98
2022-11-13T17:13:39.025Z,9.01
2022-11-13T17:28:56.767Z,8.57
2022-11-13T17:31:26.247Z,8.43
2022-11-13T17:33:56.865Z,8.45
2022-11-13T17:36:41.396Z,8.58
2022-11-13T17:39:12.760Z,8.72
2022-11-13T17:41:42.583Z,8.95
2022-11-13T17:44:13.622Z,8.69
2022-11-13T17:46:45.339Z,8.63
2022-11-13T17:49:16.531Z,8.91
2022-11-13T17:51:50.875Z,9.22
2022-11-13T17:54:20.353Z,8.86
2022-11-13T17:56:49.947Z,8.65
2022-11-13T17:59:21.816Z,8.67
2022-11-13T18:01:51.779Z,8.69
2022-11-13T18:04:22.056Z,8.91
2022-11-13T18:06:51.878Z,9.20
2022-11-13T18:09:21.346Z,8.80
2022-11-13T18:11:59.664Z,8.92
2022-11-13T18:14:30.640Z,9.17
2022-11-13T18:17:00.392Z,9.01
2022-11-13T18:19:30.018Z,8.90
2022-11-13T18:21:59.720Z,8.94
2022-11-13T18:24:33.051Z,9.00
2022-11-13T18:27:02.772Z,9.09
2022-11-13T18:29:33.865Z,9.20
2022-11-13T18:32:03.298Z,9.15
2022-11-13T18:34:33.085Z,9.20
2022-11-13T18:37:03.110Z,9.01
2022-11-13T18:39:32.861Z,9.09
2022-11-13T18:42:02.435Z,9.22
2022-11-13T18:44:34.134Z,9.35
2022-11-13T18:47:03.798Z,9.34
2022-11-13T18:49:33.818Z,9.53
2022-11-13T18:52:06.698Z,9.58
2022-11-13T19:12:15.522Z,9.68
2022-11-13T19:14:46.433Z,9.37
2022-11-13T19:17:42.556Z,9.35
2022-11-13T19:20:20.416Z,9.29
2022-11-13T19:23:15.390Z,9.37
2022-11-13T19:26:04.620Z,10.05
2022-11-13T19:28:48.053Z,10.05
2022-11-13T19:31:48.106Z,9.82
2022-11-13T19:56:01.202Z,9.98
2022-11-13T19:58:31.517Z,10.18
2022-11-13T20:01:02.172Z,10.24
2022-11-13T20:03:32.358Z,9.94
2022-11-13T20:06:02.090Z,9.93
2022-11-13T20:08:34.000Z,9.70
2022-11-13T20:11:06.940Z,9.69
2022-11-13T20:13:37.123Z,9.77
2022-11-13T20:16:08.620Z,9.87
2022-11-13T20:18:38.528Z,10.10
2022-11-13T20:21:08.779Z,10.22
2022-11-13T20:23:40.551Z,10.18
2022-11-13T20:26:17.143Z,9.95
2022-11-13T20:28:47.298Z,10.19
2022-11-13T20:31:21.129Z,10.35
2022-11-13T20:33:53.251Z,10.09
2022-11-13T20:36:24.705Z,9.94
2022-11-13T20:38:57.143Z,10.14
2022-11-13T20:41:28.532Z,9.85
2022-11-13T20:44:01.994Z,9.74
2022-11-13T20:46:32.345Z,9.69
2022-11-13T20:49:03.588Z,9.68
2022-11-13T20:51:33.531Z,9.59
2022-11-13T20:54:04.309Z,9.86
2022-11-13T20:56:37.556Z,10.16
2022-11-13T20:59:07.589Z,10.03
2022-11-13T21:01:37.390Z,10.17
2022-11-13T21:04:10.525Z,10.39
2022-11-13T21:06:39.953Z,10.35
2022-11-13T21:09:10.040Z,10.31
2022-11-13T21:11:42.456Z,10.31
2022-11-13T21:14:12.900Z,10.43
2022-11-13T21:16:44.051Z,9.90
2022-11-13T21:19:13.669Z,9.85
2022-11-13T21:21:45.539Z,10.24
2022-11-13T21:24:15.050Z,10.53
2022-11-13T21:26:45.922Z,10.52
2022-11-13T21:29:15.404Z,10.33
2022-11-13T21:31:47.735Z,10.17
2022-11-13T21:34:17.523Z,10.26
2022-11-13T21:36:46.995Z,10.24
2022-11-13T21:39:17.064Z,10.13
2022-11-13T21:41:49.440Z,9.86
2022-11-13T21:44:20.494Z,9.91
2022-11-13T21:46:50.143Z,10.14
2022-11-13T21:49:20.872Z,10.25
2022-11-13T21:51:50.890Z,10.52
2022-11-13T21:54:20.264Z,10.28
2022-11-13T21:56:51.430Z,10.10
2022-11-13T21:59:21.300Z,9.93
2022-11-13T22:01:50.925Z,9.95
2022-11-13T22:04:23.607Z,10.16
2022-11-13T22:06:54.093Z,10.31
2022-11-13T22:09:25.661Z,10.39
2022-11-13T22:11:56.840Z,10.51
2022-11-13T22:14:27.288Z,10.50
2022-11-13T22:16:56.864Z,10.50
2022-11-13T22:19:29.179Z,10.31
2022-11-13T22:22:00.838Z,10.50
2022-11-13T22:24:30.924Z,10.42
2022-11-13T22:27:02.214Z,10.31
2022-11-13T22:29:32.494Z,10.42
2022-11-13T22:32:02.055Z,10.30
2022-11-13T22:34:31.691Z,10.42
2022-11-13T22:37:01.202Z,10.65
2022-11-13T22:39:30.661Z,10.61
2022-11-13T22:42:01.753Z,10.62
2022-11-13T22:44:51.280Z,10.52
2022-11-13T22:47:20.739Z,10.13
2022-11-13T22:49:50.184Z,10.61
2022-11-13T22:52:20.267Z,10.47
2022-11-13T22:54:49.903Z,10.05
2022-11-13T22:57:21.517Z,10.50
2022-11-13T22:59:51.765Z,10.60
2022-11-13T23:02:21.197Z,10.55
2022-11-13T23:04:51.077Z,10.45
2022-11-13T23:07:21.116Z,10.51
2022-11-13T23:09:50.875Z,10.55
2022-11-13T23:12:22.610Z,10.60
2022-11-13T23:14:52.883Z,10.33
2022-11-13T23:17:22.213Z,10.28
2022-11-13T23:19:51.969Z,10.03
2022-11-13T23:22:21.855Z,10.49
2022-11-13T23:24:51.399Z,10.44
2022-11-13T23:27:30.815Z,10.12
2022-11-13T23:30:00.201Z,10.14
2022-11-13T23:32:29.521Z,10.29
2022-11-13T23:34:59.823Z,10.12
2022-11-13T23:37:30.361Z,10.25
2022-11-13T23:40:00.322Z,10.53
2022-11-13T23:42:53.674Z,10.55
2022-11-13T23:45:21.597Z,10.26
2022-11-13T23:47:51.150Z,10.41
2022-11-13T23:50:20.642Z,10.18
2022-11-13T23:52:50.369Z,9.99
2022-11-13T23:55:22.756Z,9.91
2022-11-13T23:57:59.828Z,10.11
